createdAt,value
2023-04-05T00:02:40.779Z,2.80
2023-04-05T00:05:30.392Z,2.80
2023-04-05T00:08:23.834Z,2.70
2023-04-05T00:11:12.118Z,2.70
2023-04-05T00:14:01.262Z,2.70
2023-04-05T00:16:48.281Z,2.70
2023-04-05T00:19:38.156Z,2.70
2023-04-05T00:22:26.452Z,2.80
2023-04-05T00:25:15.903Z,2.70
2023-04-05T00:28:04.431Z,2.70
2023-04-05T00:30:53.279Z,2.60
2023-04-05T00:33:39.549Z,2.60
2023-04-05T00:36:26.353Z,2.60
2023-04-05T00:39:13.122Z,2.60
2023-04-05T00:41:59.555Z,2.50
2023-04-05T00:44:47.495Z,2.40
2023-04-05T00:47:38.968Z,2.30
2023-04-05T00:50:26.605Z,2.30
2023-04-05T00:53:14.017Z,2.30
2023-04-05T00:56:01.365Z,2.30
2023-04-05T00:58:48.577Z,2.40
2023-04-05T01:01:40.299Z,2.20
2023-04-05T01:04:27.852Z,2.30
2023-04-05T01:07:22.447Z,2.30
2023-04-05T01:10:12.972Z,2.40
2023-04-05T01:12:59.898Z,2.30
2023-04-05T01:15:46.752Z,2.40
2023-04-05T01:18:36.430Z,2.40
2023-04-05T01:22:00.968Z,2.40
2023-04-05T01:25:10.992Z,2.40
2023-04-05T01:28:34.356Z,2.50
2023-04-05T01:31:30.353Z,2.60
2023-04-05T01:34:24.425Z,2.60
2023-04-05T01:37:15.863Z,2.60
2023-04-05T01:40:04.706Z,2.60
2023-04-05T01:42:51.530Z,2.50
2023-04-05T01:45:38.073Z,2.30
2023-04-05T01:48:25.674Z,2.20
2023-04-05T01:51:12.389Z,2.20
2023-04-05T01:54:01.619Z,2.30
2023-04-05T01:56:48.208Z,2.40
2023-04-05T01:59:34.752Z,2.40
2023-04-05T02:02:21.504Z,2.40
2023-04-05T02:05:10.399Z,2.50
2023-04-05T02:07:57.162Z,2.60
2023-04-05T02:10:43.943Z,2.60
2023-04-05T02:13:30.605Z,2.70
2023-04-05T02:16:18.565Z,2.70
2023-04-05T02:19:05.925Z,2.80
2023-04-05T02:21:54.735Z,2.70
2023-04-05T02:24:41.501Z,2.80
2023-04-05T02:27:27.889Z,2.80
2023-04-05T02:30:14.630Z,2.80
2023-04-05T02:33:01.994Z,2.80
2023-04-05T02:35:52.517Z,2.80
2023-04-05T02:38:40.788Z,2.80
2023-04-05T02:41:27.396Z,2.80
2023-04-05T02:44:14.560Z,2.90
2023-04-05T02:47:01.322Z,2.80
2023-04-05T02:49:47.740Z,2.80
2023-04-05T02:52:34.169Z,2.70
2023-04-05T02:55:22.032Z,2.80
2023-04-05T02:58:08.662Z,2.70
2023-04-05T03:00:57.733Z,2.70
2023-04-05T03:03:44.312Z,2.70
2023-04-05T03:06:31.570Z,2.60
2023-04-05T03:09:18.317Z,2.60
2023-04-05T03:12:06.954Z,2.60
2023-04-05T03:14:53.985Z,2.50
2023-04-05T03:17:44.097Z,2.60
2023-04-05T03:20:30.690Z,2.60
2023-04-05T03:23:17.293Z,2.30
2023-04-05T03:26:04.911Z,2.30
2023-04-05T03:28:53.089Z,2.30
2023-04-05T03:31:39.727Z,2.40
2023-04-05T03:34:28.990Z,2.40
2023-04-05T03:37:15.574Z,2.30
2023-04-05T03:40:02.012Z,2.30
2023-04-05T03:42:48.302Z,2.40
2023-04-05T03:45:36.007Z,2.50
2023-04-05T03:48:24.277Z,2.50
2023-04-05T03:51:10.979Z,2.60
2023-04-05T03:53:57.300Z,2.60
2023-04-05T03:56:43.669Z,2.60
2023-04-05T03:59:30.333Z,2.60
2023-04-05T04:02:18.259Z,2.60
2023-04-05T04:05:06.371Z,2.60
2023-04-05T04:07:53.203Z,2.70
2023-04-05T04:10:40.076Z,2.70
2023-04-05T04:13:26.610Z,2.70
2023-04-05T04:16:13.396Z,2.70
2023-04-05T04:19:01.365Z,2.70
2023-04-05T04:21:52.407Z,2.70
2023-04-05T04:24:40.822Z,2.70
2023-04-05T04:27:30.420Z,2.80
2023-04-05T04:30:17.275Z,2.80
2023-04-05T04:33:07.329Z,2.80
2023-04-05T04:35:56.780Z,2.80
2023-04-05T04:38:44.371Z,2.90
2023-04-05T04:41:33.798Z,2.90
2023-04-05T04:44:28.231Z,2.80
2023-04-05T04:47:17.299Z,2.90
2023-04-05T04:50:04.630Z,2.90
2023-04-05T04:52:52.765Z,2.90
2023-04-05T04:55:42.340Z,2.90
2023-04-05T04:58:28.785Z,3.00
2023-04-05T05:01:15.190Z,3.00
2023-04-05T05:04:01.667Z,3.10
2023-04-05T05:06:50.963Z,3.10
2023-04-05T05:09:38.635Z,3.20
2023-04-05T05:12:26.728Z,3.20
2023-04-05T05:15:14.020Z,3.30
2023-04-05T05:18:00.924Z,3.30
2023-04-05T05:20:51.763Z,3.30
2023-04-05T05:23:38.159Z,3.40
2023-04-05T05:26:26.373Z,3.40
2023-04-05T05:29:12.838Z,3.50
2023-04-05T05:31:59.321Z,3.60
2023-04-05T05:34:45.955Z,3.50
2023-04-05T05:37:33.850Z,3.60
2023-04-05T05:40:20.344Z,3.60
2023-04-05T05:43:08.344Z,3.70
2023-04-05T05:45:55.099Z,3.70
2023-04-05T05:48:41.822Z,3.80
2023-04-05T05:51:28.535Z,3.80
2023-04-05T05:54:15.040Z,3.90
2023-04-05T05:57:02.231Z,3.90
2023-04-05T05:59:51.633Z,4.00
2023-04-05T06:02:38.857Z,4.20
2023-04-05T06:05:26.340Z,4.40
2023-04-05T06:08:12.675Z,4.60
2023-04-05T06:10:59.228Z,4.60
2023-04-05T06:13:45.872Z,4.80
2023-04-05T06:16:35.323Z,5.00
2023-04-05T06:19:21.799Z,5.30
2023-04-05T06:22:08.279Z,5.60
2023-04-05T06:24:54.596Z,5.80
2023-04-05T06:27:41.136Z,5.70
2023-04-05T06:30:27.587Z,5.70
2023-04-05T06:33:17.256Z,6.00
2023-04-05T06:36:04.147Z,6.40
2023-04-05T06:38:51.804Z,6.70
2023-04-05T06:41:38.574Z,6.80
2023-04-05T06:44:25.236Z,7.10
2023-04-05T06:47:11.715Z,7.20
2023-04-05T06:50:01.837Z,7.10
2023-04-05T06:52:48.323Z,7.20
2023-04-05T06:55:36.793Z,7.00
2023-04-05T06:58:27.352Z,7.20
2023-04-05T07:01:13.863Z,6.90
2023-04-05T07:04:00.623Z,6.80
2023-04-05T07:06:48.559Z,7.20
2023-04-05T07:09:37.062Z,7.70
2023-04-05T07:12:25.042Z,8.40
2023-04-05T07:15:12.650Z,8.70
2023-04-05T07:17:59.468Z,8.90
2023-04-05T07:20:49.032Z,9.10
2023-04-05T07:23:37.223Z,9.10
2023-04-05T07:26:24.986Z,9.10
2023-04-05T07:29:12.947Z,8.90
2023-04-05T07:31:59.557Z,8.60
2023-04-05T07:34:45.804Z,8.60
2023-04-05T07:37:32.325Z,8.60
2023-04-05T07:40:20.626Z,8.70
2023-04-05T07:43:07.009Z,8.70
2023-04-05T07:45:53.981Z,8.60
2023-04-05T07:48:40.529Z,8.60
2023-04-05T07:51:27.545Z,8.80
2023-04-05T07:54:13.982Z,9.30
2023-04-05T07:57:02.632Z,9.60
2023-04-05T07:59:50.916Z,9.80
2023-04-05T08:02:37.754Z,10.30
2023-04-05T08:05:24.583Z,10.50
2023-04-05T08:08:11.469Z,10.90
2023-04-05T08:11:41.321Z,11.40
2023-04-05T08:14:29.381Z,11.50
2023-04-05T08:17:16.287Z,11.50
2023-04-05T08:20:03.508Z,11.50
2023-04-05T08:22:49.979Z,11.60
2023-04-05T08:25:36.513Z,11.80
2023-04-05T08:28:23.315Z,12.20
2023-04-05T08:31:13.439Z,12.60
2023-04-05T08:34:00.416Z,12.90
2023-04-05T08:36:48.269Z,13.10
2023-04-05T08:39:37.920Z,13.10
2023-04-05T08:42:30.875Z,13.10
2023-04-05T08:45:19.721Z,13.00
2023-04-05T08:48:07.865Z,13.20
2023-04-05T08:50:55.688Z,13.50
2023-04-05T08:53:45.546Z,13.70
2023-04-05T08:56:34.060Z,13.80
2023-04-05T08:59:21.795Z,13.60
2023-04-05T09:02:16.240Z,13.10
2023-04-05T09:05:09.815Z,13.00
2023-04-05T09:08:01.225Z,12.90
2023-04-05T09:10:50.254Z,13.30
2023-04-05T09:13:38.977Z,13.80
2023-04-05T09:16:27.158Z,14.30
2023-04-05T09:19:13.558Z,14.00
2023-04-05T09:22:03.735Z,14.30
2023-04-05T09:24:51.814Z,14.30
2023-04-05T09:27:56.340Z,14.00
2023-04-05T09:30:47.581Z,13.80
2023-04-05T09:33:35.146Z,13.50
2023-04-05T09:36:24.191Z,13.20
2023-04-05T09:39:12.406Z,13.50
2023-04-05T09:42:09.673Z,13.20
2023-04-05T09:44:58.014Z,12.50
2023-04-05T09:47:53.625Z,12.30
2023-04-05T09:50:40.665Z,12.40
2023-04-05T09:53:29.233Z,13.00
2023-04-05T09:56:17.271Z,13.60
2023-04-05T09:59:09.560Z,14.30
2023-04-05T10:01:56.245Z,14.70
2023-04-05T10:04:43.878Z,14.80
2023-04-05T10:07:30.776Z,14.80
2023-04-05T10:10:17.197Z,14.80
2023-04-05T10:13:07.020Z,14.80
2023-04-05T10:15:57.510Z,14.50
2023-04-05T10:18:50.372Z,13.90
2023-04-05T10:21:42.084Z,13.50
2023-04-05T10:24:36.949Z,13.00
2023-04-05T10:27:31.216Z,12.60
2023-04-05T10:30:19.690Z,12.30
2023-04-05T10:33:14.637Z,12.10
2023-04-05T10:36:09.854Z,12.00
2023-04-05T10:39:06.082Z,11.90
2023-04-05T10:41:57.813Z,11.70
2023-04-05T10:44:46.994Z,11.50
2023-04-05T10:47:43.524Z,11.40
2023-04-05T10:50:30.751Z,11.10
2023-04-05T10:53:17.875Z,11.00
2023-04-05T10:56:04.746Z,11.10
2023-04-05T10:58:53.368Z,11.40
2023-04-05T11:01:40.928Z,11.80
2023-04-05T11:04:28.669Z,12.20
2023-04-05T11:07:16.896Z,12.60
2023-04-05T11:10:05.201Z,12.30
2023-04-05T11:13:06.241Z,12.30
2023-04-05T11:16:11.781Z,12.20
2023-04-05T11:18:58.431Z,11.80
2023-04-05T11:21:46.272Z,11.80
2023-04-05T11:24:55.309Z,11.90
2023-04-05T11:28:00.898Z,12.00
2023-04-05T11:30:48.447Z,12.40
2023-04-05T11:33:57.670Z,12.90
2023-04-05T11:36:50.290Z,13.10
2023-04-05T11:39:40.636Z,13.20
2023-04-05T11:42:27.521Z,13.00
2023-04-05T11:45:13.951Z,12.80
2023-04-05T11:48:02.370Z,12.60
2023-04-05T11:50:51.962Z,12.50
2023-04-05T11:53:40.062Z,12.30
2023-04-05T11:56:26.694Z,12.30
2023-04-05T11:59:15.851Z,12.30
2023-04-05T12:02:04.131Z,12.30
2023-04-05T12:04:55.999Z,12.10
2023-04-05T12:07:42.478Z,12.10
2023-04-05T12:10:30.231Z,12.00
2023-04-05T12:13:16.588Z,12.00
2023-04-05T12:16:04.618Z,11.90
2023-04-05T12:18:55.601Z,11.90
2023-04-05T12:21:46.741Z,11.90
2023-04-05T12:24:33.501Z,11.60
2023-04-05T12:27:21.353Z,11.30
2023-04-05T12:30:14.526Z,11.20
2023-04-05T12:33:10.000Z,11.30
2023-04-05T12:35:56.833Z,11.10
2023-04-05T12:38:43.417Z,11.10
2023-04-05T12:41:30.756Z,11.20
2023-04-05T12:44:29.764Z,11.20
2023-04-05T12:47:17.555Z,10.90
2023-04-05T12:50:18.886Z,10.70
2023-04-05T12:53:07.546Z,10.50
2023-04-05T12:55:57.386Z,10.50
2023-04-05T12:58:44.622Z,10.30
2023-04-05T13:01:32.357Z,10.20
2023-04-05T13:04:18.872Z,10.00
2023-04-05T13:07:05.786Z,9.90
2023-04-05T13:09:52.244Z,10.00
2023-04-05T13:12:38.525Z,10.10
2023-04-05T13:15:25.094Z,10.10
2023-04-05T13:18:14.743Z,10.20
2023-04-05T13:21:05.029Z,10.20
2023-04-05T13:23:51.513Z,10.20
2023-04-05T13:26:38.318Z,10.30
2023-04-05T13:29:24.742Z,10.30
2023-04-05T13:32:11.085Z,10.30
2023-04-05T13:34:58.957Z,10.40
2023-04-05T13:37:45.294Z,10.50
2023-04-05T13:40:32.306Z,10.50
2023-04-05T13:43:19.107Z,10.40
2023-04-05T13:46:06.132Z,10.50
2023-04-05T13:48:54.101Z,10.50
2023-04-05T13:51:42.023Z,10.60
2023-04-05T13:54:28.790Z,10.60
2023-04-05T13:57:15.477Z,10.60
2023-04-05T14:00:02.187Z,10.70
2023-04-05T14:02:49.340Z,10.70
2023-04-05T14:05:35.898Z,10.80
2023-04-05T14:08:23.881Z,10.60
2023-04-05T14:11:10.377Z,10.50
2023-04-05T14:13:56.991Z,10.50
2023-04-05T14:16:43.879Z,10.40
2023-04-05T14:19:30.779Z,10.50
2023-04-05T14:22:19.200Z,10.50
2023-04-05T14:25:08.779Z,10.50
2023-04-05T14:27:55.640Z,10.40
2023-04-05T14:30:42.324Z,10.40
2023-04-05T14:33:29.025Z,10.40
2023-04-05T14:36:15.543Z,10.50
2023-04-05T14:39:02.080Z,10.50
2023-04-05T14:41:52.525Z,10.50
2023-04-05T14:44:39.124Z,10.50
2023-04-05T14:47:25.916Z,10.50
2023-04-05T14:50:12.902Z,10.50
2023-04-05T14:52:59.490Z,10.40
2023-04-05T14:55:46.175Z,10.40
2023-04-05T14:58:34.320Z,10.30
2023-04-05T15:01:20.946Z,10.30
2023-04-05T15:04:09.378Z,10.10
2023-04-05T15:06:56.603Z,10.00
2023-04-05T15:09:43.226Z,9.90
2023-04-05T15:12:31.478Z,9.90
2023-04-05T15:15:19.244Z,9.60
2023-04-05T15:18:07.779Z,9.60
2023-04-05T15:20:54.394Z,9.40
2023-04-05T15:23:43.020Z,9.30
2023-04-05T15:26:29.429Z,9.20
2023-04-05T15:29:15.965Z,9.10
2023-04-05T15:32:08.062Z,9.00
2023-04-05T15:34:54.902Z,9.00
2023-04-05T15:37:41.176Z,8.90
2023-04-05T15:40:29.096Z,8.80
2023-04-05T15:43:15.556Z,8.80
2023-04-05T15:46:02.014Z,8.70
2023-04-05T15:48:50.004Z,8.70
2023-04-05T15:51:49.307Z,8.70
2023-04-05T15:54:35.786Z,8.70
2023-04-05T15:57:24.079Z,8.70
2023-04-05T16:00:12.218Z,8.70
2023-04-05T16:03:00.620Z,8.70
2023-04-05T16:05:49.481Z,8.70
2023-04-05T16:08:36.670Z,8.70
2023-04-05T16:11:23.706Z,8.70
2023-04-05T16:14:11.510Z,8.70
2023-04-05T16:16:58.613Z,8.60
2023-04-05T16:19:45.698Z,8.70
2023-04-05T16:22:33.587Z,8.70
2023-04-05T16:25:20.814Z,8.70
2023-04-05T16:28:07.738Z,8.70
2023-04-05T16:30:59.285Z,8.70
2023-04-05T16:33:45.922Z,8.70
2023-04-05T16:36:32.343Z,8.70
2023-04-05T16:39:20.214Z,8.70
2023-04-05T16:42:07.892Z,8.70
2023-04-05T16:44:54.523Z,8.60
2023-04-05T16:47:40.897Z,8.60
2023-04-05T16:50:27.468Z,8.60
2023-04-05T16:53:14.985Z,8.50
2023-04-05T16:56:03.316Z,8.50
2023-04-05T16:58:50.016Z,8.50
2023-04-05T17:01:36.651Z,8.50
2023-04-05T17:04:23.494Z,8.50
2023-04-05T17:07:10.645Z,8.40
2023-04-05T17:09:57.862Z,8.40
2023-04-05T17:12:48.318Z,8.40
2023-04-05T17:15:34.656Z,8.40
2023-04-05T17:18:21.051Z,8.30
2023-04-05T17:21:07.903Z,8.30
2023-04-05T17:23:54.220Z,8.20
2023-04-05T17:26:42.666Z,8.10
2023-04-05T17:29:30.411Z,8.10
2023-04-05T17:32:17.230Z,8.10
2023-04-05T17:35:04.263Z,8.00
2023-04-05T17:37:52.571Z,8.00
2023-04-05T17:40:38.951Z,8.00
2023-04-05T17:43:26.249Z,7.90
2023-04-05T17:46:17.154Z,7.90
2023-04-05T17:49:06.841Z,7.90
2023-04-05T17:51:56.205Z,7.90
2023-04-05T17:54:43.276Z,7.90
2023-04-05T17:57:34.112Z,7.90
2023-04-05T18:00:21.076Z,7.80
2023-04-05T18:03:09.050Z,7.80
2023-04-05T18:05:56.761Z,7.80
2023-04-05T18:08:45.906Z,7.70
2023-04-05T18:11:32.207Z,7.60
2023-04-05T18:14:18.600Z,7.60
2023-04-05T18:17:07.136Z,7.50
2023-04-05T18:19:54.971Z,7.50
2023-04-05T18:22:41.686Z,7.50
2023-04-05T18:25:28.770Z,7.40
2023-04-05T18:28:22.807Z,7.30
2023-04-05T18:31:11.693Z,7.20
2023-04-05T18:34:00.143Z,7.30
2023-04-05T18:36:48.319Z,7.20
2023-04-05T18:39:35.991Z,7.20
2023-04-05T18:42:22.739Z,7.10
2023-04-05T18:45:09.963Z,7.10
2023-04-05T18:47:56.600Z,7.00
2023-04-05T18:50:43.003Z,7.00
2023-04-05T18:53:31.004Z,7.00
2023-04-05T18:56:18.173Z,7.00
2023-04-05T18:59:04.910Z,7.00
2023-04-05T19:01:51.582Z,6.90
2023-04-05T19:04:38.657Z,6.90
2023-04-05T19:07:25.063Z,7.00
2023-04-05T19:10:13.114Z,6.90
2023-04-05T19:12:59.552Z,6.90
2023-04-05T19:15:46.636Z,6.80
2023-04-05T19:18:33.202Z,6.80
2023-04-05T19:21:21.616Z,6.70
2023-04-05T19:24:09.852Z,6.60
2023-04-05T19:27:01.058Z,6.60
2023-04-05T19:29:47.740Z,6.60
2023-04-05T19:32:34.303Z,6.50
2023-04-05T19:35:20.866Z,6.40
2023-04-05T19:38:08.676Z,6.40
2023-04-05T19:40:55.270Z,6.20
2023-04-05T19:43:47.554Z,6.20
2023-04-05T19:46:38.575Z,6.20
2023-04-05T19:49:38.845Z,6.10
2023-04-05T19:52:37.875Z,6.10
2023-04-05T19:55:29.653Z,6.10
2023-04-05T19:58:28.058Z,6.10
2023-04-05T20:01:34.277Z,6.00
2023-04-05T20:04:25.103Z,6.00
2023-04-05T20:07:14.716Z,5.90
2023-04-05T20:10:01.707Z,5.90
2023-04-05T20:12:48.490Z,5.90
2023-04-05T20:15:37.482Z,5.80
2023-04-05T20:18:26.815Z,5.70
2023-04-05T20:21:13.772Z,5.70
2023-04-05T20:24:01.969Z,5.60
2023-04-05T20:26:48.770Z,5.60
2023-04-05T20:29:36.132Z,5.60
2023-04-05T20:32:25.510Z,5.60
2023-04-05T20:35:32.718Z,5.50
2023-04-05T20:38:19.193Z,5.60
2023-04-05T20:41:08.360Z,5.50
2023-04-05T20:43:56.381Z,5.40
2023-04-05T20:46:45.020Z,5.40
2023-04-05T20:49:33.717Z,5.30
2023-04-05T20:52:26.514Z,5.30
2023-04-05T20:55:13.226Z,5.30
2023-04-05T20:57:59.631Z,5.20
2023-04-05T21:00:46.082Z,5.20
2023-04-05T21:03:38.944Z,5.20
2023-04-05T21:06:25.859Z,5.20
2023-04-05T21:09:13.765Z,5.20
2023-04-05T21:12:00.484Z,5.10
2023-04-05T21:14:47.040Z,5.20
2023-04-05T21:17:33.891Z,5.10
2023-04-05T21:20:20.535Z,5.10
2023-04-05T21:23:07.825Z,5.10
2023-04-05T21:25:57.358Z,5.00
2023-04-05T21:28:44.238Z,4.90
2023-04-05T21:31:30.626Z,4.90
2023-04-05T21:34:16.991Z,4.90
2023-04-05T21:37:03.342Z,5.00
2023-04-05T21:39:49.802Z,4.90
2023-04-05T21:42:37.564Z,5.00
2023-04-05T21:45:24.474Z,4.90
2023-04-05T21:48:11.301Z,4.90
2023-04-05T21:50:59.817Z,5.00
2023-04-05T21:53:46.259Z,5.00
2023-04-05T21:56:32.693Z,5.00
2023-04-05T21:59:21.011Z,5.00
2023-04-05T22:02:07.971Z,4.90
2023-04-05T22:04:54.536Z,4.90
2023-04-05T22:07:43.090Z,4.90
2023-04-05T22:10:30.559Z,4.90
2023-04-05T22:13:17.062Z,4.80
2023-04-05T22:16:05.080Z,4.90
2023-04-05T22:18:51.643Z,4.80
2023-04-05T22:21:38.808Z,4.80
2023-04-05T22:24:27.249Z,4.70
2023-04-05T22:27:16.266Z,4.60
2023-04-05T22:30:03.816Z,4.60
2023-04-05T22:32:51.906Z,4.60
2023-04-05T22:35:38.632Z,4.60
2023-04-05T22:38:25.323Z,4.70
2023-04-05T22:41:11.747Z,4.70
2023-04-05T22:44:01.425Z,4.70
2023-04-05T22:46:48.312Z,4.70
2023-04-05T22:49:36.350Z,4.70
2023-04-05T22:52:23.161Z,4.70
2023-04-05T22:55:12.329Z,4.70
2023-04-05T22:57:59.334Z,4.60
2023-04-05T23:00:46.082Z,4.60
2023-04-05T23:03:32.970Z,4.60
2023-04-05T23:06:20.729Z,4.60
2023-04-05T23:09:08.371Z,4.60
2023-04-05T23:11:55.497Z,4.60
2023-04-05T23:14:42.365Z,4.60
2023-04-05T23:17:28.951Z,4.60
2023-04-05T23:20:15.749Z,4.60
2023-04-05T23:23:03.822Z,4.60
2023-04-05T23:25:50.374Z,4.60
2023-04-05T23:28:38.295Z,4.50
2023-04-05T23:31:27.514Z,4.50
2023-04-05T23:34:14.209Z,4.40
2023-04-05T23:37:00.803Z,4.40
2023-04-05T23:39:48.971Z,4.40
2023-04-05T23:42:35.930Z,4.40
2023-04-05T23:45:22.468Z,4.40
2023-04-05T23:48:13.715Z,4.40
2023-04-05T23:51:00.483Z,4.40
2023-04-05T23:53:49.262Z,4.40
2023-04-05T23:56:37.264Z,4.40
2023-04-05T23:59:25.636Z,4.40
